createdAt,value
2022-12-19T00:01:37.881Z,69.29
2022-12-19T00:04:09.271Z,69.32
2022-12-19T00:06:43.636Z,68.98
2022-12-19T00:09:11.144Z,69.19
2022-12-19T00:11:38.794Z,69.09
2022-12-19T00:14:06.484Z,69.15
2022-12-19T00:16:33.605Z,69.38
2022-12-19T00:19:01.431Z,69.19
2022-12-19T00:21:34.672Z,69.29
2022-12-19T00:24:03.408Z,69.21
2022-12-19T00:26:34.013Z,69.01
2022-12-19T00:29:12.534Z,69.23
2022-12-19T00:31:40.837Z,69.02
2022-12-19T00:34:07.734Z,69.10
2022-12-19T00:36:35.071Z,69.34
2022-12-19T00:39:08.362Z,69.14
2022-12-19T00:41:37.338Z,69.30
2022-12-19T00:44:09.849Z,69.16
2022-12-19T00:46:36.909Z,69.29
2022-12-19T00:49:05.250Z,69.32
2022-12-19T00:51:34.417Z,69.19
2022-12-19T00:54:02.191Z,69.11
2022-12-19T00:56:37.090Z,69.23
2022-12-19T00:59:04.216Z,69.13
2022-12-19T01:01:34.452Z,69.39
2022-12-19T01:04:27.611Z,69.26
2022-12-19T01:06:49.949Z,68.96
2022-12-19T01:09:17.445Z,68.92
2022-12-19T01:12:03.011Z,69.29
2022-12-19T01:14:29.803Z,69.19
2022-12-19T01:16:56.400Z,69.29
2022-12-19T01:19:23.487Z,69.24
2022-12-19T01:21:50.198Z,69.17
2022-12-19T01:24:19.025Z,69.43
2022-12-19T01:26:46.403Z,69.20
2022-12-19T01:29:13.108Z,69.42
2022-12-19T01:31:39.820Z,69.42
2022-12-19T01:34:06.887Z,69.23
2022-12-19T01:36:39.577Z,69.51
2022-12-19T01:39:07.144Z,69.26
2022-12-19T01:41:33.774Z,69.36
2022-12-19T01:44:02.558Z,69.34
2022-12-19T01:46:38.496Z,69.31
2022-12-19T01:49:10.835Z,69.24
2022-12-19T01:51:47.336Z,69.51
2022-12-19T01:54:19.833Z,69.61
2022-12-19T01:56:50.760Z,69.20
2022-12-19T01:59:25.005Z,69.41
2022-12-19T02:01:58.647Z,69.49
2022-12-19T02:04:28.919Z,69.44
2022-12-19T02:07:09.378Z,69.60
2022-12-19T02:09:45.002Z,69.42
2022-12-19T02:12:11.920Z,69.50
2022-12-19T02:14:39.328Z,69.77
2022-12-19T02:17:40.147Z,69.48
2022-12-19T02:20:15.905Z,69.42
2022-12-19T02:22:42.736Z,69.33
2022-12-19T02:25:18.093Z,69.35
2022-12-19T02:27:56.272Z,69.54
2022-12-19T02:30:32.019Z,69.58
2022-12-19T02:33:17.810Z,69.51
2022-12-19T02:35:51.320Z,69.54
2022-12-19T02:38:47.795Z,69.51
2022-12-19T02:41:28.628Z,69.60
2022-12-19T02:43:58.778Z,69.45
2022-12-19T02:46:26.960Z,69.51
2022-12-19T02:48:54.358Z,69.65
2022-12-19T02:51:21.271Z,69.40
2022-12-19T02:53:48.496Z,69.57
2022-12-19T02:56:36.748Z,69.71
2022-12-19T02:59:29.215Z,69.63
2022-12-19T03:02:03.345Z,69.62
2022-12-19T03:05:07.488Z,69.55
2022-12-19T03:07:54.508Z,69.59
2022-12-19T03:10:26.338Z,69.54
2022-12-19T03:13:16.605Z,69.51
2022-12-19T03:15:44.939Z,69.60
2022-12-19T03:18:12.032Z,69.71
2022-12-19T03:20:52.369Z,69.60
2022-12-19T03:23:19.925Z,69.80
2022-12-19T03:25:50.350Z,69.86
2022-12-19T03:28:24.403Z,69.86
2022-12-19T03:30:51.755Z,69.85
2022-12-19T03:33:20.827Z,69.45
2022-12-19T03:35:50.677Z,69.99
2022-12-19T03:38:20.406Z,69.90
2022-12-19T03:40:48.169Z,69.75
2022-12-19T03:43:17.484Z,70.04
2022-12-19T03:46:01.144Z,69.97
2022-12-19T03:48:36.625Z,69.89
2022-12-19T03:51:18.550Z,69.92
2022-12-19T03:53:49.837Z,70.22
2022-12-19T03:56:27.315Z,70.08
2022-12-19T03:59:02.317Z,70.22
2022-12-19T04:01:34.074Z,70.31
2022-12-19T04:04:03.725Z,70.54
2022-12-19T04:06:33.212Z,70.53
2022-12-19T04:09:00.820Z,70.67
2022-12-19T04:11:34.776Z,70.93
2022-12-19T04:14:03.964Z,70.87
2022-12-19T04:16:46.011Z,70.73
2022-12-19T04:19:21.009Z,70.63
2022-12-19T04:21:56.804Z,70.84
2022-12-19T04:24:28.571Z,70.88
2022-12-19T04:26:57.812Z,71.10
2022-12-19T04:29:26.829Z,71.03
2022-12-19T04:31:53.474Z,71.32
2022-12-19T04:34:21.550Z,71.39
2022-12-19T04:36:50.666Z,71.36
2022-12-19T04:39:17.355Z,71.16
2022-12-19T04:41:44.348Z,71.31
2022-12-19T04:44:11.085Z,71.19
2022-12-19T04:46:37.719Z,71.29
2022-12-19T04:49:04.695Z,71.30
2022-12-19T04:51:31.625Z,71.33
2022-12-19T04:53:58.505Z,71.13
2022-12-19T04:56:25.274Z,71.19
2022-12-19T04:59:00.184Z,71.16
2022-12-19T05:01:27.469Z,71.02
2022-12-19T05:03:56.614Z,71.11
2022-12-19T05:06:25.341Z,71.06
2022-12-19T05:08:52.681Z,71.03
2022-12-19T05:11:20.136Z,70.93
2022-12-19T05:13:47.356Z,70.99
2022-12-19T05:16:16.131Z,70.87
2022-12-19T05:18:43.626Z,70.87
2022-12-19T05:21:11.137Z,70.80
2022-12-19T05:23:38.624Z,70.74
2022-12-19T05:26:06.528Z,70.83
2022-12-19T05:28:34.665Z,70.56
2022-12-19T05:31:07.418Z,70.46
2022-12-19T05:33:34.719Z,70.52
2022-12-19T05:36:01.445Z,70.46
2022-12-19T05:38:29.101Z,70.37
2022-12-19T05:40:55.843Z,70.21
2022-12-19T05:43:22.567Z,70.53
2022-12-19T05:45:49.563Z,70.48
2022-12-19T05:48:16.172Z,70.25
2022-12-19T05:50:47.563Z,70.36
2022-12-19T05:53:14.457Z,70.56
2022-12-19T05:55:41.355Z,70.59
2022-12-19T05:58:07.907Z,70.48
2022-12-19T06:00:34.732Z,70.66
2022-12-19T06:03:01.362Z,70.73
2022-12-19T06:05:27.980Z,70.77
2022-12-19T06:07:55.063Z,70.96
2022-12-19T06:10:21.666Z,71.01
2022-12-19T06:12:48.214Z,71.08
2022-12-19T06:15:15.203Z,71.18
2022-12-19T06:17:41.807Z,71.26
2022-12-19T06:20:08.974Z,71.45
2022-12-19T06:22:35.898Z,71.80
2022-12-19T06:25:02.490Z,71.65
2022-12-19T06:27:29.080Z,71.87
2022-12-19T06:29:56.666Z,72.03
2022-12-19T06:32:23.247Z,71.99
2022-12-19T06:35:05.273Z,72.28
2022-12-19T06:37:32.315Z,72.07
2022-12-19T06:39:59.152Z,72.04
2022-12-19T06:42:25.818Z,72.01
2022-12-19T06:44:54.363Z,72.32
2022-12-19T06:47:23.901Z,72.28
2022-12-19T06:49:50.511Z,72.39
2022-12-19T06:52:18.435Z,72.55
2022-12-19T06:54:47.074Z,72.71
2022-12-19T06:57:13.618Z,72.76
2022-12-19T06:59:41.011Z,72.92
2022-12-19T07:02:19.924Z,72.93
2022-12-19T07:04:57.983Z,72.86
2022-12-19T07:07:28.482Z,73.12
2022-12-19T07:09:55.294Z,73.06
2022-12-19T07:12:22.076Z,73.43
2022-12-19T07:14:53.129Z,73.31
2022-12-19T07:17:22.109Z,73.54
2022-12-19T07:19:52.031Z,73.33
2022-12-19T07:22:18.848Z,73.40
2022-12-19T07:24:45.749Z,73.83
2022-12-19T07:27:13.380Z,73.53
2022-12-19T07:29:40.172Z,73.74
2022-12-19T07:32:06.965Z,73.71
2022-12-19T07:34:33.719Z,74.02
2022-12-19T07:37:00.598Z,73.96
2022-12-19T07:39:27.226Z,74.02
2022-12-19T07:41:53.958Z,74.20
2022-12-19T07:44:20.762Z,74.36
2022-12-19T07:46:48.035Z,74.38
2022-12-19T07:49:19.568Z,74.33
2022-12-19T07:51:49.245Z,74.33
2022-12-19T07:54:16.671Z,74.42
2022-12-19T07:56:43.257Z,74.62
2022-12-19T07:59:10.295Z,74.58
2022-12-19T08:01:37.049Z,74.78
2022-12-19T08:04:03.771Z,74.75
2022-12-19T08:06:30.977Z,74.96
2022-12-19T08:08:57.651Z,75.00
2022-12-19T08:11:27.576Z,74.92
2022-12-19T08:13:54.507Z,74.79
2022-12-19T08:16:21.877Z,75.07
2022-12-19T08:18:48.618Z,74.87
2022-12-19T08:21:15.387Z,74.70
2022-12-19T08:23:42.119Z,74.91
2022-12-19T08:26:12.372Z,74.74
2022-12-19T08:28:39.078Z,74.65
2022-12-19T08:31:17.866Z,74.93
2022-12-19T08:33:45.083Z,74.84
2022-12-19T08:36:14.551Z,74.65
2022-12-19T08:38:41.331Z,74.64
2022-12-19T08:41:09.050Z,74.67
2022-12-19T08:43:36.028Z,74.49
2022-12-19T08:46:02.883Z,74.26
2022-12-19T08:48:30.998Z,74.35
2022-12-19T08:51:00.060Z,74.08
2022-12-19T08:53:28.815Z,74.42
2022-12-19T08:56:00.297Z,74.20
2022-12-19T08:58:28.939Z,74.29
2022-12-19T09:01:05.378Z,74.23
2022-12-19T09:03:56.200Z,74.15
2022-12-19T09:06:20.431Z,74.34
2022-12-19T09:08:47.355Z,74.04
2022-12-19T09:11:16.603Z,74.31
2022-12-19T09:13:45.166Z,73.95
2022-12-19T09:16:14.500Z,74.08
2022-12-19T09:18:48.071Z,74.13
2022-12-19T09:21:15.729Z,73.83
2022-12-19T09:23:43.286Z,73.64
2022-12-19T09:26:13.399Z,74.05
2022-12-19T09:28:41.623Z,73.88
2022-12-19T09:31:13.939Z,73.92
2022-12-19T09:33:43.666Z,73.67
2022-12-19T09:36:28.670Z,73.85
2022-12-19T09:38:57.212Z,73.60
2022-12-19T09:41:34.119Z,73.49
2022-12-19T09:44:10.780Z,73.64
2022-12-19T09:47:03.319Z,73.32
2022-12-19T09:49:36.664Z,73.43
2022-12-19T09:52:20.826Z,73.42
2022-12-19T09:54:56.584Z,73.27
2022-12-19T09:57:26.739Z,73.19
2022-12-19T10:00:33.267Z,73.15
2022-12-19T10:03:05.544Z,72.96
2022-12-19T10:06:53.630Z,72.89
2022-12-19T10:10:00.055Z,72.86
2022-12-19T10:12:38.461Z,72.37
2022-12-19T10:15:06.512Z,72.47
2022-12-19T10:17:52.812Z,72.02
2022-12-19T10:20:31.123Z,72.20
2022-12-19T10:23:32.027Z,71.97
2022-12-19T10:26:32.512Z,71.83
2022-12-19T10:29:07.174Z,71.64
2022-12-19T10:31:37.079Z,71.83
2022-12-19T10:34:24.471Z,71.61
2022-12-19T10:37:27.267Z,71.16
2022-12-19T10:40:05.588Z,71.02
2022-12-19T10:43:15.421Z,70.96
2022-12-19T10:45:54.110Z,70.82
2022-12-19T10:48:30.720Z,70.96
2022-12-19T10:50:58.043Z,70.95
2022-12-19T10:53:29.948Z,70.80
2022-12-19T10:56:13.151Z,70.80
2022-12-19T10:58:44.127Z,70.55
2022-12-19T11:01:14.523Z,70.61
2022-12-19T11:03:48.512Z,70.64
2022-12-19T11:06:48.945Z,70.42
2022-12-19T11:09:29.778Z,70.40
2022-12-19T11:16:10.278Z,69.86
2022-12-19T11:20:28.129Z,69.81
2022-12-19T11:25:24.863Z,69.44
2022-12-19T11:29:19.748Z,69.54
2022-12-19T11:29:33.478Z,69.29
2022-12-19T11:30:34.291Z,69.51
2022-12-19T11:32:42.943Z,69.15
2022-12-19T11:35:24.815Z,69.17
2022-12-19T11:37:57.953Z,68.85
2022-12-19T11:40:44.671Z,68.89
2022-12-19T11:43:44.444Z,68.74
2022-12-19T11:46:36.713Z,68.57
2022-12-19T11:49:31.320Z,68.26
2022-12-19T11:52:06.348Z,68.10
2022-12-19T11:55:08.275Z,68.04
2022-12-19T11:57:42.446Z,68.08
2022-12-19T12:00:17.763Z,67.96
2022-12-19T12:03:03.043Z,67.78
2022-12-19T12:05:39.963Z,67.47
2022-12-19T12:09:45.155Z,67.25
2022-12-19T12:18:20.335Z,67.27
2022-12-19T12:23:13.373Z,66.71
2022-12-19T12:30:52.361Z,66.91
2022-12-19T12:31:09.793Z,66.47
2022-12-19T12:31:23.085Z,66.75
2022-12-19T12:32:05.781Z,66.24
2022-12-19T12:35:08.606Z,66.14
2022-12-19T12:35:38.054Z,65.85
2022-12-19T12:39:18.050Z,65.42
2022-12-19T12:42:08.933Z,65.22
2022-12-19T12:44:45.247Z,64.90
2022-12-19T12:47:24.830Z,65.01
2022-12-19T12:50:02.062Z,64.74
2022-12-19T12:52:37.158Z,64.54
2022-12-19T12:55:25.160Z,64.56
2022-12-19T12:57:52.142Z,64.50
2022-12-19T13:00:25.817Z,64.67
2022-12-19T13:03:19.394Z,64.48
2022-12-19T13:05:46.306Z,64.72
2022-12-19T13:08:25.885Z,64.48
2022-12-19T13:10:59.236Z,64.36
2022-12-19T13:13:56.308Z,64.33
2022-12-19T13:16:45.302Z,63.99
2022-12-19T13:19:25.791Z,63.94
2022-12-19T13:22:03.993Z,63.97
2022-12-19T13:24:41.865Z,64.27
2022-12-19T13:27:20.676Z,64.54
2022-12-19T13:30:00.133Z,64.43
2022-12-19T13:32:31.963Z,64.65
2022-12-19T13:35:31.527Z,64.80
2022-12-19T13:39:54.163Z,64.92
2022-12-19T13:41:25.955Z,64.67
2022-12-19T13:43:59.707Z,64.83
2022-12-19T13:46:35.493Z,64.71
2022-12-19T13:49:17.825Z,64.92
2022-12-19T13:51:52.087Z,65.13
2022-12-19T13:54:22.956Z,64.75
2022-12-19T13:56:51.135Z,65.15
2022-12-19T13:59:19.555Z,64.89
2022-12-19T14:01:46.524Z,65.27
2022-12-19T14:04:30.566Z,65.41
2022-12-19T14:07:36.024Z,65.13
2022-12-19T14:11:43.142Z,65.00
2022-12-19T14:14:01.450Z,65.16
2022-12-19T14:16:01.050Z,65.45
2022-12-19T14:18:42.827Z,65.44
2022-12-19T14:22:11.290Z,65.82
2022-12-19T14:24:09.529Z,65.95
2022-12-19T14:28:19.305Z,65.98
2022-12-19T14:30:28.858Z,66.11
2022-12-19T14:33:44.377Z,66.20
2022-12-19T14:36:10.853Z,65.95
2022-12-19T14:39:25.720Z,66.21
2022-12-19T14:41:09.299Z,65.95
2022-12-19T14:43:56.905Z,66.23
2022-12-19T14:54:04.030Z,66.27
2022-12-19T14:54:13.171Z,66.12
2022-12-19T14:54:29.350Z,66.45
2022-12-19T14:56:11.393Z,66.18
2022-12-19T14:58:52.270Z,66.52
2022-12-19T15:01:39.591Z,66.67
2022-12-19T15:04:53.511Z,66.60
2022-12-19T15:07:13.858Z,66.58
2022-12-19T15:11:06.715Z,66.59
2022-12-19T15:14:54.587Z,66.41
2022-12-19T15:16:07.581Z,66.46
2022-12-19T15:18:34.590Z,66.85
2022-12-19T15:21:04.183Z,66.54
2022-12-19T15:23:31.713Z,66.53
2022-12-19T15:26:07.700Z,66.47
2022-12-19T15:28:43.252Z,67.00
2022-12-19T15:31:32.380Z,66.97
2022-12-19T15:34:33.079Z,67.19
2022-12-19T15:36:46.233Z,66.89
2022-12-19T15:39:15.139Z,66.64
2022-12-19T15:41:42.681Z,67.09
2022-12-19T15:44:32.935Z,66.95
2022-12-19T15:47:01.062Z,67.01
2022-12-19T15:49:27.805Z,66.76
2022-12-19T15:51:54.682Z,67.03
2022-12-19T15:54:47.827Z,67.11
2022-12-19T15:57:30.690Z,67.12
2022-12-19T16:00:00.978Z,67.33
2022-12-19T16:02:56.321Z,67.29
2022-12-19T16:05:15.836Z,67.16
2022-12-19T16:07:42.678Z,67.29
2022-12-19T16:10:11.400Z,67.39
2022-12-19T16:12:55.582Z,67.54
2022-12-19T16:15:27.635Z,67.33
2022-12-19T16:17:54.738Z,67.40
2022-12-19T16:20:24.997Z,67.65
2022-12-19T16:22:51.624Z,67.33
2022-12-19T16:25:18.698Z,67.57
2022-12-19T16:27:56.904Z,67.36
2022-12-19T16:30:27.927Z,67.48
2022-12-19T16:32:54.627Z,67.55
2022-12-19T16:35:47.279Z,67.33
2022-12-19T16:38:10.880Z,67.23
2022-12-19T16:40:37.808Z,67.39
2022-12-19T16:43:07.853Z,67.49
2022-12-19T16:45:34.652Z,67.38
2022-12-19T16:48:01.543Z,67.33
2022-12-19T16:50:30.968Z,67.59
2022-12-19T16:52:58.005Z,67.67
2022-12-19T16:55:26.494Z,67.75
2022-12-19T16:57:56.269Z,67.22
2022-12-19T17:00:24.534Z,67.63
2022-12-19T17:02:57.633Z,67.60
2022-12-19T17:05:29.456Z,67.82
2022-12-19T17:07:56.757Z,67.64
2022-12-19T17:10:30.423Z,67.59
2022-12-19T17:12:58.696Z,67.71
2022-12-19T17:15:27.543Z,67.74
2022-12-19T17:17:58.354Z,67.85
2022-12-19T17:20:28.784Z,67.72
2022-12-19T17:22:55.431Z,67.64
2022-12-19T17:25:27.395Z,67.52
2022-12-19T17:27:55.780Z,67.51
2022-12-19T17:30:22.506Z,67.56
2022-12-19T17:32:53.856Z,67.51
2022-12-19T17:35:27.719Z,67.67
2022-12-19T17:37:55.174Z,67.65
2022-12-19T17:40:27.478Z,67.45
2022-12-19T17:42:54.758Z,67.71
2022-12-19T17:45:23.325Z,67.65
2022-12-19T17:47:51.603Z,67.84
2022-12-19T17:50:27.025Z,67.75
2022-12-19T17:52:54.905Z,67.73
2022-12-19T17:55:28.036Z,68.20
2022-12-19T17:57:55.661Z,67.92
2022-12-19T18:00:30.436Z,67.95
2022-12-19T18:03:02.345Z,68.11
2022-12-19T18:05:33.641Z,68.04
2022-12-19T18:08:00.440Z,68.02
2022-12-19T18:10:29.388Z,68.45
2022-12-19T18:12:56.805Z,68.30
2022-12-19T18:15:24.293Z,68.18
2022-12-19T18:17:53.825Z,68.24
2022-12-19T18:20:21.209Z,68.68
2022-12-19T18:22:50.794Z,68.41
2022-12-19T18:25:23.161Z,68.56
2022-12-19T18:27:50.265Z,68.67
2022-12-19T18:30:18.022Z,68.71
2022-12-19T18:32:48.004Z,68.63
2022-12-19T18:35:23.301Z,68.66
2022-12-19T18:37:51.703Z,68.47
2022-12-19T18:40:29.287Z,68.46
2022-12-19T18:42:58.103Z,68.71
2022-12-19T18:45:37.697Z,68.72
2022-12-19T18:48:18.478Z,68.49
2022-12-19T18:50:45.054Z,68.41
2022-12-19T18:53:13.705Z,68.49
2022-12-19T18:55:40.892Z,68.57
2022-12-19T18:58:07.481Z,68.63
2022-12-19T19:00:35.602Z,68.59
2022-12-19T19:03:05.899Z,68.81
2022-12-19T19:05:35.641Z,68.55
2022-12-19T19:08:20.001Z,68.52
2022-12-19T19:10:47.497Z,68.73
2022-12-19T19:13:16.524Z,68.43
2022-12-19T19:15:51.571Z,68.75
2022-12-19T19:18:24.388Z,68.79
2022-12-19T19:21:00.515Z,68.72
2022-12-19T19:23:41.320Z,68.55
2022-12-19T19:26:08.175Z,68.82
2022-12-19T19:28:37.290Z,68.69
2022-12-19T19:31:09.005Z,68.56
2022-12-19T19:33:40.659Z,68.88
2022-12-19T19:36:13.113Z,68.51
2022-12-19T19:38:43.067Z,68.76
2022-12-19T19:41:09.791Z,68.54
2022-12-19T19:43:37.664Z,68.70
2022-12-19T19:46:04.920Z,68.71
2022-12-19T19:48:31.788Z,68.79
2022-12-19T19:50:58.446Z,68.90
2022-12-19T19:53:25.553Z,69.00
2022-12-19T19:56:01.021Z,69.05
2022-12-19T19:58:29.180Z,69.01
2022-12-19T20:00:56.906Z,69.10
2022-12-19T20:03:24.584Z,68.94
2022-12-19T20:05:59.737Z,69.08
2022-12-19T20:08:26.694Z,68.88
2022-12-19T20:10:57.671Z,68.85
2022-12-19T20:13:25.049Z,69.17
2022-12-19T20:15:52.326Z,69.04
2022-12-19T20:18:19.182Z,68.85
2022-12-19T20:20:48.587Z,68.89
2022-12-19T20:23:15.223Z,69.03
2022-12-19T20:25:43.178Z,68.78
2022-12-19T20:28:10.099Z,68.88
2022-12-19T20:30:37.852Z,68.95
2022-12-19T20:33:04.573Z,68.83
2022-12-19T20:35:31.806Z,69.07
2022-12-19T20:37:58.443Z,69.12
2022-12-19T20:40:25.180Z,69.36
2022-12-19T20:42:56.158Z,69.46
2022-12-19T20:45:22.819Z,69.57
2022-12-19T20:47:49.477Z,69.65
2022-12-19T20:50:16.623Z,69.55
2022-12-19T20:52:43.307Z,69.59
2022-12-19T20:55:10.464Z,69.69
2022-12-19T20:57:37.166Z,69.64
2022-12-19T21:00:05.754Z,69.68
2022-12-19T21:02:52.560Z,69.67
2022-12-19T21:05:20.812Z,69.60
2022-12-19T21:07:47.939Z,69.78
2022-12-19T21:10:14.644Z,69.48
2022-12-19T21:12:47.368Z,69.41
2022-12-19T21:15:14.753Z,69.31
2022-12-19T21:17:41.457Z,69.29
2022-12-19T21:20:12.837Z,69.43
2022-12-19T21:22:39.573Z,69.41
2022-12-19T21:25:06.600Z,69.43
2022-12-19T21:27:34.517Z,69.37
2022-12-19T21:30:01.113Z,69.21
2022-12-19T21:32:27.916Z,69.38
2022-12-19T21:34:55.067Z,69.34
2022-12-19T21:37:24.192Z,69.23
2022-12-19T21:39:50.818Z,69.32
2022-12-19T21:42:17.763Z,69.25
2022-12-19T21:44:44.775Z,69.39
2022-12-19T21:47:11.479Z,69.20
2022-12-19T21:49:42.764Z,69.38
2022-12-19T21:52:10.155Z,69.20
2022-12-19T21:54:36.853Z,69.23
2022-12-19T21:57:03.952Z,69.59
2022-12-19T21:59:30.630Z,69.18
2022-12-19T22:01:58.221Z,69.30
2022-12-19T22:04:27.697Z,69.33
2022-12-19T22:06:54.339Z,69.40
2022-12-19T22:09:25.424Z,69.28
2022-12-19T22:11:52.617Z,69.32
2022-12-19T22:14:19.293Z,69.28
2022-12-19T22:16:46.008Z,69.37
2022-12-19T22:19:16.778Z,69.21
2022-12-19T22:21:44.854Z,69.18
2022-12-19T22:24:13.341Z,69.18
2022-12-19T22:26:40.718Z,69.37
2022-12-19T22:29:09.783Z,69.30
2022-12-19T22:31:37.526Z,69.44
2022-12-19T22:34:07.226Z,69.42
2022-12-19T22:36:36.882Z,69.04
2022-12-19T22:39:06.793Z,69.19
2022-12-19T22:41:39.734Z,69.23
2022-12-19T22:44:07.532Z,69.06
2022-12-19T22:46:37.547Z,69.24
2022-12-19T22:49:06.962Z,69.07
2022-12-19T22:51:35.309Z,69.23
2022-12-19T22:54:02.352Z,69.17
2022-12-19T22:56:31.098Z,69.10
2022-12-19T22:59:01.603Z,69.30
2022-12-19T23:01:34.921Z,69.35
2022-12-19T23:04:03.557Z,69.13
2022-12-19T23:06:32.688Z,69.16
2022-12-19T23:08:59.814Z,69.08
2022-12-19T23:11:30.774Z,69.04
2022-12-19T23:13:57.490Z,69.20
2022-12-19T23:16:24.357Z,69.17
2022-12-19T23:18:51.279Z,69.18
2022-12-19T23:21:20.718Z,69.10
2022-12-19T23:23:49.697Z,69.09
2022-12-19T23:26:25.421Z,69.20
2022-12-19T23:28:58.124Z,68.88
2022-12-19T23:31:25.738Z,69.20
2022-12-19T23:33:52.712Z,69.32
2022-12-19T23:36:32.599Z,69.09
2022-12-19T23:39:06.768Z,69.09
2022-12-19T23:41:33.796Z,69.06
2022-12-19T23:44:00.520Z,69.01
2022-12-19T23:46:27.750Z,69.02
2022-12-19T23:48:54.591Z,69.27
2022-12-19T23:51:25.197Z,69.29
2022-12-19T23:53:53.020Z,69.28
2022-12-19T23:56:22.305Z,69.18
2022-12-19T23:58:48.909Z,69.55
